createdAt,value
2023-01-30T00:01:03.576Z,1.37
2023-01-30T00:04:20.404Z,1.70
2023-01-30T00:07:46.107Z,1.27
2023-01-30T00:10:55.432Z,1.70
2023-01-30T00:14:34.099Z,1.30
2023-01-30T00:17:29.389Z,1.07
2023-01-30T00:28:04.591Z,1.00
2023-01-30T00:44:15.560Z,0.80
2023-01-30T00:56:19.938Z,1.00
2023-01-30T01:00:02.384Z,0.70
2023-01-30T01:02:40.441Z,1.00
2023-01-30T01:08:49.088Z,0.93
2023-01-30T01:12:26.833Z,0.80
2023-01-30T01:14:54.290Z,0.60
2023-01-30T01:17:22.339Z,0.60
2023-01-30T01:23:00.162Z,1.03
2023-01-30T01:26:04.824Z,0.73
2023-01-30T01:28:51.284Z,0.80
2023-01-30T01:35:36.177Z,1.23
2023-01-30T01:38:31.694Z,0.83
2023-01-30T01:42:00.983Z,1.13
2023-01-30T01:46:11.834Z,0.93
2023-01-30T02:12:40.720Z,1.40
2023-01-30T02:15:30.884Z,1.10
2023-01-30T02:21:51.677Z,1.20
2023-01-30T02:26:33.437Z,1.13
2023-01-30T02:30:00.308Z,1.33
2023-01-30T02:47:47.945Z,1.63
2023-01-30T02:50:08.823Z,1.40
2023-01-30T02:52:38.325Z,1.50
2023-01-30T02:55:21.563Z,1.63
2023-01-30T02:57:49.425Z,1.30
2023-01-30T03:00:23.957Z,1.70
2023-01-30T03:03:12.512Z,2.33
2023-01-30T03:06:21.237Z,1.40
2023-01-30T03:09:07.625Z,1.00
2023-01-30T03:11:46.447Z,0.87
2023-01-30T03:14:52.511Z,1.10
2023-01-30T03:17:23.344Z,1.30
2023-01-30T03:19:54.080Z,0.70
2023-01-30T03:22:22.678Z,0.80
2023-01-30T03:24:56.571Z,0.77
2023-01-30T03:27:26.468Z,1.00
2023-01-30T03:29:54.371Z,1.00
2023-01-30T03:32:25.382Z,1.37
2023-01-30T03:34:53.135Z,0.97
2023-01-30T03:37:23.311Z,0.60
2023-01-30T03:40:09.984Z,1.33
2023-01-30T03:42:40.756Z,1.00
2023-01-30T03:45:25.382Z,1.30
2023-01-30T03:47:53.761Z,1.23
2023-01-30T03:50:49.780Z,0.63
2023-01-30T03:53:33.930Z,0.93
2023-01-30T03:56:02.001Z,1.03
2023-01-30T03:58:32.468Z,1.10
2023-01-30T04:01:08.933Z,1.30
2023-01-30T04:03:36.762Z,1.13
2023-01-30T04:06:07.905Z,1.10
2023-01-30T04:08:35.367Z,1.20
2023-01-30T04:11:04.100Z,1.37
2023-01-30T04:13:31.258Z,1.10
2023-01-30T04:16:25.968Z,1.00
2023-01-30T04:19:11.845Z,1.00
2023-01-30T04:21:40.538Z,1.10
2023-01-30T04:24:07.830Z,0.80
2023-01-30T04:26:35.086Z,0.70
2023-01-30T04:29:02.910Z,0.67
2023-01-30T04:31:31.373Z,1.90
2023-01-30T04:34:20.257Z,1.23
2023-01-30T04:36:47.499Z,1.53
2023-01-30T04:39:14.851Z,1.13
2023-01-30T04:42:00.837Z,1.53
2023-01-30T04:44:28.814Z,2.23
2023-01-30T04:47:17.088Z,1.93
2023-01-30T04:50:03.055Z,1.17
2023-01-30T04:52:30.717Z,1.90
2023-01-30T04:54:58.790Z,2.20
2023-01-30T04:57:26.247Z,1.40
2023-01-30T04:59:54.121Z,1.70
2023-01-30T05:02:23.089Z,1.23
2023-01-30T05:04:51.467Z,1.37
2023-01-30T05:07:18.835Z,1.87
2023-01-30T05:09:46.232Z,1.30
2023-01-30T05:12:13.968Z,1.40
2023-01-30T05:15:12.365Z,1.40
2023-01-30T05:17:41.501Z,2.20
2023-01-30T05:20:12.161Z,1.70
2023-01-30T05:23:01.842Z,1.97
2023-01-30T05:25:29.522Z,1.23
2023-01-30T05:27:57.402Z,1.80
2023-01-30T05:30:24.891Z,1.47
2023-01-30T05:32:55.369Z,1.70
2023-01-30T05:35:22.746Z,1.77
2023-01-30T05:38:08.726Z,1.20
2023-01-30T05:40:35.774Z,2.00
2023-01-30T05:43:02.906Z,1.43
2023-01-30T05:45:33.151Z,1.77
2023-01-30T05:48:18.752Z,1.13
2023-01-30T05:53:35.178Z,1.73
2023-01-30T05:56:06.924Z,1.87
2023-01-30T06:01:18.983Z,1.90
2023-01-30T06:03:46.469Z,2.20
2023-01-30T06:06:14.251Z,2.50
2023-01-30T06:08:42.413Z,1.13
2023-01-30T06:11:13.075Z,2.10
2023-01-30T06:13:40.500Z,2.47
2023-01-30T06:49:55.176Z,1.30
2023-01-30T07:58:24.025Z,1.50
2023-01-30T08:00:54.870Z,1.57
2023-01-30T08:03:21.990Z,1.73
2023-01-30T08:05:49.138Z,2.17
2023-01-30T08:08:16.656Z,1.70
2023-01-30T08:10:43.760Z,1.40
2023-01-30T08:13:10.905Z,1.23
2023-01-30T08:15:38.002Z,1.17
2023-01-30T08:18:05.193Z,1.53
2023-01-30T08:20:32.421Z,1.53
2023-01-30T08:23:00.926Z,1.73
2023-01-30T08:25:28.970Z,1.60
2023-01-30T08:54:28.107Z,1.63
2023-01-30T10:03:28.208Z,2.60
2023-01-30T10:06:06.272Z,1.17
2023-01-30T10:08:33.039Z,1.50
2023-01-30T10:11:12.569Z,1.63
2023-01-30T10:13:47.960Z,1.70
2023-01-30T10:16:48.420Z,1.13
2023-01-30T10:19:41.209Z,2.03
2023-01-30T10:22:32.224Z,1.77
2023-01-30T10:25:40.786Z,1.57
2023-01-30T10:29:07.680Z,1.77
2023-01-30T10:31:43.956Z,1.13
2023-01-30T10:34:19.689Z,1.37
2023-01-30T10:36:53.311Z,1.13
2023-01-30T10:39:55.276Z,1.70
2023-01-30T10:42:43.244Z,0.93
2023-01-30T10:45:20.539Z,1.20
2023-01-30T10:48:14.904Z,1.60
2023-01-30T10:50:55.535Z,6.33
2023-01-30T10:54:08.545Z,4.93
2023-01-30T10:57:16.906Z,8.33
2023-01-30T10:59:56.221Z,5.03
2023-01-30T11:02:32.967Z,3.20
2023-01-30T11:05:04.429Z,3.83
2023-01-30T11:07:32.819Z,1.07
2023-01-30T11:10:00.662Z,2.00
2023-01-30T11:12:27.495Z,1.20
2023-01-30T11:14:58.539Z,1.70
2023-01-30T11:17:36.206Z,2.43
2023-01-30T11:20:16.735Z,1.80
2023-01-30T11:22:47.967Z,1.43
2023-01-30T11:25:39.064Z,3.13
2023-01-30T11:28:06.416Z,4.30
2023-01-30T11:30:36.799Z,3.70
2023-01-30T11:33:18.110Z,3.43
2023-01-30T11:35:56.366Z,1.93
2023-01-30T11:38:31.698Z,1.30
2023-01-30T11:41:21.418Z,2.33
2023-01-30T11:43:48.628Z,2.60
2023-01-30T11:46:20.624Z,1.93
2023-01-30T11:49:02.595Z,1.87
2023-01-30T11:51:45.291Z,1.57
2023-01-30T11:54:16.480Z,1.67
2023-01-30T11:56:53.977Z,1.27
2023-01-30T11:59:26.280Z,1.30
2023-01-30T12:02:12.697Z,1.83
2023-01-30T12:04:46.815Z,1.37
2023-01-30T12:07:36.164Z,2.40
2023-01-30T12:10:23.961Z,1.80
2023-01-30T12:12:54.050Z,1.43
2023-01-30T12:15:32.116Z,1.70
2023-01-30T12:18:01.573Z,1.90
2023-01-30T12:20:46.918Z,1.47
2023-01-30T12:23:28.600Z,2.23
2023-01-30T12:26:05.515Z,1.80
2023-01-30T12:28:58.314Z,1.35
2023-01-30T12:31:37.456Z,2.70
2023-01-30T12:34:05.022Z,5.30
2023-01-30T12:36:37.794Z,3.28
2023-01-30T12:39:29.324Z,2.70
2023-01-30T12:42:32.421Z,2.67
2023-01-30T12:45:24.613Z,2.73
2023-01-30T12:48:03.494Z,1.93
2023-01-30T12:51:14.818Z,2.13
2023-01-30T12:53:55.431Z,1.58
2023-01-30T12:56:39.356Z,1.67
2023-01-30T12:59:30.411Z,1.63
2023-01-30T13:02:19.898Z,1.60
2023-01-30T13:05:21.508Z,1.73
2023-01-30T13:08:20.251Z,1.50
2023-01-30T13:11:16.199Z,1.50
2023-01-30T13:13:50.296Z,1.23
2023-01-30T13:16:36.836Z,1.27
2023-01-30T13:19:12.996Z,1.57
2023-01-30T13:21:50.887Z,1.23
2023-01-30T13:24:23.491Z,1.52
2023-01-30T13:27:11.701Z,1.35
2023-01-30T13:29:40.950Z,1.47
2023-01-30T13:32:45.235Z,1.50
2023-01-30T13:35:51.207Z,1.70
2023-01-30T13:38:25.001Z,1.77
2023-01-30T13:40:56.383Z,1.52
2023-01-30T13:43:37.135Z,1.10
2023-01-30T13:46:09.635Z,1.90
2023-01-30T13:49:09.344Z,1.10
2023-01-30T13:51:48.865Z,1.17
2023-01-30T13:54:43.034Z,1.07
2023-01-30T13:57:34.030Z,0.88
2023-01-30T14:00:29.878Z,1.70
2023-01-30T14:03:08.632Z,1.43
2023-01-30T14:06:02.749Z,1.87
2023-01-30T14:08:35.715Z,1.43
2023-01-30T14:11:02.888Z,1.30
2023-01-30T14:13:31.265Z,1.00
2023-01-30T14:16:01.065Z,1.30
2023-01-30T14:18:36.262Z,1.17
2023-01-30T14:21:15.145Z,1.37
2023-01-30T14:23:54.168Z,1.30
2023-01-30T14:26:48.705Z,1.30
2023-01-30T14:29:43.280Z,1.60
2023-01-30T14:32:13.787Z,1.43
2023-01-30T14:34:44.739Z,1.37
2023-01-30T14:37:37.787Z,1.48
2023-01-30T14:40:24.629Z,1.52
2023-01-30T14:43:13.352Z,1.33
2023-01-30T14:45:57.128Z,2.03
2023-01-30T14:48:33.533Z,1.70
2023-01-30T14:51:26.161Z,1.77
2023-01-30T14:54:10.179Z,1.65
2023-01-30T14:56:54.425Z,1.55
2023-01-30T14:59:37.680Z,2.20
2023-01-30T15:02:13.473Z,1.48
2023-01-30T15:04:49.168Z,1.30
2023-01-30T15:07:24.840Z,1.60
2023-01-30T15:10:01.663Z,1.33
2023-01-30T15:12:34.430Z,1.38
2023-01-30T15:15:27.800Z,1.10
2023-01-30T15:18:13.033Z,0.77
2023-01-30T15:21:01.214Z,1.57
2023-01-30T15:23:54.068Z,1.27
2023-01-30T15:26:51.834Z,0.93
2023-01-30T15:29:18.749Z,0.97
2023-01-30T15:31:56.916Z,1.17
2023-01-30T15:34:27.172Z,1.00
2023-01-30T15:36:53.908Z,0.60
2023-01-30T15:39:23.791Z,1.13
2023-01-30T15:41:52.752Z,1.73
2023-01-30T15:44:33.253Z,0.85
2023-01-30T15:47:18.305Z,1.73
2023-01-30T15:49:47.895Z,0.75
2023-01-30T15:52:23.984Z,1.30
2023-01-30T15:54:53.417Z,0.63
2023-01-30T15:57:29.954Z,1.37
2023-01-30T15:59:57.967Z,1.00
2023-01-30T16:02:36.133Z,1.33
2023-01-30T16:05:25.360Z,0.97
2023-01-30T16:07:54.839Z,1.10
2023-01-30T16:10:30.532Z,0.97
2023-01-30T16:13:02.496Z,0.93
2023-01-30T16:15:40.120Z,1.10
2023-01-30T16:18:28.131Z,1.00
2023-01-30T16:21:02.311Z,1.53
2023-01-30T16:23:37.250Z,0.70
2023-01-30T16:26:06.999Z,1.70
2023-01-30T16:28:52.621Z,1.87
2023-01-30T16:31:38.751Z,1.63
2023-01-30T16:34:38.321Z,2.33
2023-01-30T16:37:35.744Z,1.70
2023-01-30T16:40:17.695Z,2.30
2023-01-30T16:43:21.691Z,1.70
2023-01-30T16:45:54.616Z,2.40
2023-01-30T16:48:33.366Z,2.47
2023-01-30T16:51:00.155Z,2.17
2023-01-30T16:53:29.470Z,1.93
2023-01-30T16:55:57.762Z,2.50
2023-01-30T16:58:32.293Z,2.50
2023-01-30T17:01:02.448Z,2.57
2023-01-30T17:03:34.156Z,3.30
2023-01-30T17:06:12.772Z,3.13
2023-01-30T17:08:54.022Z,1.93
2023-01-30T17:11:34.390Z,2.47
2023-01-30T17:14:20.144Z,1.70
2023-01-30T17:17:16.527Z,1.50
2023-01-30T17:19:46.676Z,1.60
2023-01-30T17:22:24.462Z,1.97
2023-01-30T17:25:01.888Z,1.47
2023-01-30T17:27:30.533Z,1.47
2023-01-30T17:29:57.607Z,2.97
2023-01-30T17:32:24.392Z,3.83
2023-01-30T17:34:51.156Z,3.20
2023-01-30T17:37:21.350Z,2.13
2023-01-30T17:39:48.983Z,1.50
2023-01-30T17:42:22.085Z,1.53
2023-01-30T17:44:49.542Z,1.03
2023-01-30T17:47:16.363Z,1.73
2023-01-30T17:52:27.312Z,1.67
2023-01-30T17:54:54.098Z,2.10
2023-01-30T17:57:21.328Z,1.20
2023-01-30T17:59:48.267Z,1.13
2023-01-30T18:02:15.018Z,1.10
2023-01-30T18:04:41.787Z,2.10
2023-01-30T18:07:31.520Z,2.13
2023-01-30T18:09:58.495Z,1.93
2023-01-30T18:12:25.664Z,1.27
2023-01-30T18:14:52.442Z,1.93
2023-01-30T18:17:19.358Z,2.13
2023-01-30T18:19:46.136Z,1.57
2023-01-30T18:22:12.864Z,1.07
2023-01-30T18:24:39.600Z,1.50
2023-01-30T18:27:06.344Z,1.53
2023-01-30T18:29:33.138Z,2.77
2023-01-30T18:32:05.044Z,1.93
2023-01-30T18:34:32.807Z,1.80
2023-01-30T18:36:59.576Z,2.00
2023-01-30T18:39:26.400Z,2.33
2023-01-30T18:41:53.260Z,2.00
2023-01-30T18:44:20.140Z,1.98
2023-01-30T18:46:48.889Z,3.53
2023-01-30T18:49:15.732Z,2.10
2023-01-30T18:51:42.571Z,2.83
2023-01-30T18:54:09.351Z,3.57
2023-01-30T18:56:36.837Z,3.17
2023-01-30T18:59:05.878Z,3.27
2023-01-30T19:01:38.887Z,4.23
2023-01-30T19:04:08.499Z,4.87
2023-01-30T19:06:38.637Z,4.57
2023-01-30T19:09:06.441Z,3.70
2023-01-30T19:11:51.960Z,3.93
2023-01-30T19:14:18.773Z,2.80
2023-01-30T19:16:45.564Z,3.23
2023-01-30T19:19:12.459Z,3.20
2023-01-30T19:21:39.569Z,3.27
2023-01-30T19:24:08.438Z,3.00
2023-01-30T19:26:35.410Z,2.30
2023-01-30T19:29:20.688Z,2.67
2023-01-30T19:31:47.762Z,2.73
2023-01-30T19:34:33.435Z,2.80
2023-01-30T19:37:01.258Z,2.40
2023-01-30T19:39:28.015Z,2.10
2023-01-30T19:42:14.317Z,1.50
2023-01-30T19:47:25.458Z,1.90
2023-01-30T19:49:52.178Z,1.83
2023-01-30T19:52:19.029Z,1.80
2023-01-30T19:55:05.499Z,1.47
2023-01-30T19:57:32.419Z,1.60
2023-01-30T19:59:59.183Z,1.70
2023-01-30T20:02:26.153Z,1.60
2023-01-30T20:04:52.896Z,1.57
2023-01-30T20:07:19.791Z,1.40
2023-01-30T20:09:46.547Z,2.33
2023-01-30T20:12:13.657Z,1.80
2023-01-30T20:14:40.384Z,1.93
2023-01-30T20:17:07.181Z,1.60
2023-01-30T20:19:34.076Z,1.47
2023-01-30T20:22:06.686Z,1.10
2023-01-30T20:24:33.475Z,0.97
2023-01-30T20:27:00.351Z,1.40
2023-01-30T20:32:11.876Z,1.10
2023-01-30T20:34:38.698Z,1.67
2023-01-30T20:37:05.847Z,1.27
2023-01-30T20:39:32.620Z,1.13
2023-01-30T20:42:18.003Z,1.80
2023-01-30T20:44:44.801Z,1.30
2023-01-30T20:47:11.692Z,0.87
2023-01-30T20:49:38.479Z,1.27
2023-01-30T20:52:05.363Z,1.70
2023-01-30T20:54:32.220Z,1.53
2023-01-30T20:56:59.451Z,0.90
2023-01-30T20:59:27.321Z,1.07
2023-01-30T21:01:54.717Z,1.07
2023-01-30T21:04:24.664Z,1.37
2023-01-30T21:06:51.878Z,2.17
2023-01-30T21:09:22.122Z,1.07
2023-01-30T21:11:51.107Z,1.10
2023-01-30T21:14:18.120Z,1.00
2023-01-30T21:16:45.394Z,1.30
2023-01-30T21:19:16.078Z,1.33
2023-01-30T21:22:07.484Z,1.20
2023-01-30T21:27:20.309Z,1.10
2023-01-30T21:29:47.063Z,0.80
2023-01-30T21:32:14.017Z,0.97
2023-01-30T21:34:40.765Z,0.77
2023-01-30T21:37:25.963Z,1.07
2023-01-30T21:40:11.328Z,0.73
2023-01-30T21:42:56.516Z,1.10
2023-01-30T21:45:23.368Z,1.17
2023-01-30T21:47:51.986Z,0.80
2023-01-30T21:50:18.871Z,1.23
2023-01-30T21:52:45.647Z,0.93
2023-01-30T21:55:12.424Z,1.00
2023-01-30T21:57:39.212Z,0.90
2023-01-30T22:00:06.653Z,0.70
2023-01-30T22:02:33.450Z,0.90
2023-01-30T22:05:00.323Z,0.77
2023-01-30T22:07:27.058Z,0.53
2023-01-30T22:09:54.102Z,0.97
2023-01-30T22:12:20.860Z,0.73
2023-01-30T22:14:47.665Z,1.27
2023-01-30T22:17:14.448Z,0.73
2023-01-30T22:19:41.221Z,0.83
2023-01-30T22:22:08.034Z,1.00
2023-01-30T22:24:36.141Z,1.07
2023-01-30T22:27:02.919Z,0.50
2023-01-30T22:29:29.764Z,0.60
2023-01-30T22:31:56.551Z,0.80
2023-01-30T22:34:23.392Z,0.90
2023-01-30T22:36:50.817Z,0.40
2023-01-30T22:39:17.696Z,0.93
2023-01-30T22:44:28.567Z,0.87
2023-01-30T22:46:55.351Z,0.50
2023-01-30T22:49:22.168Z,0.73
2023-01-30T22:51:49.136Z,1.00
2023-01-30T22:54:16.496Z,0.97
2023-01-30T22:56:48.785Z,0.70
2023-01-30T22:59:16.120Z,0.77
2023-01-30T23:01:45.658Z,0.90
2023-01-30T23:04:18.592Z,0.70
2023-01-30T23:06:47.213Z,0.70
2023-01-30T23:09:17.639Z,0.70
2023-01-30T23:12:09.028Z,0.60
2023-01-30T23:14:37.211Z,0.70
2023-01-30T23:17:23.013Z,0.70
2023-01-30T23:19:49.801Z,0.43
2023-01-30T23:22:35.522Z,0.70
2023-01-30T23:25:02.500Z,0.50
2023-01-30T23:27:29.316Z,0.50
2023-01-30T23:29:56.072Z,0.30
2023-01-30T23:32:23.791Z,0.30
2023-01-30T23:34:50.603Z,0.20
2023-01-30T23:37:17.839Z,0.20
2023-01-30T23:39:45.556Z,0.33
2023-01-30T23:42:12.327Z,0.30
2023-01-30T23:44:39.212Z,0.20
2023-01-30T23:47:05.966Z,0.20
2023-01-30T23:49:32.684Z,0.27
2023-01-30T23:51:59.419Z,0.20
2023-01-30T23:54:26.154Z,0.10
2023-01-30T23:56:54.519Z,0.20
2023-01-30T23:59:21.332Z,0.10
